sensor_id;sensor_type;location;lat;lon;timestamp;P1;durP1;ratioP1;P2;durP2;ratioP2
52982;SDS011;48698;45.736;13.926;2023-06-26T00:04:42;8.68;;;6.40;;
52982;SDS011;48698;45.736;13.926;2023-06-26T00:09:46;10.13;;;6.28;;
52982;SDS011;48698;45.736;13.926;2023-06-26T00:14:49;10.90;;;6.90;;
52982;SDS011;48698;45.736;13.926;2023-06-26T00:19:51;10.13;;;6.65;;
52982;SDS011;48698;45.736;13.926;2023-06-26T00:24:54;8.15;;;6.70;;
52982;SDS011;48698;45.736;13.926;2023-06-26T00:29:57;8.68;;;6.90;;
52982;SDS011;48698;45.736;13.926;2023-06-26T00:34:59;7.07;;;6.38;;
52982;SDS011;48698;45.736;13.926;2023-06-26T00:40:02;8.07;;;6.72;;
52982;SDS011;48698;45.736;13.926;2023-06-26T00:45:07;7.53;;;6.72;;
52982;SDS011;48698;45.736;13.926;2023-06-26T00:50:10;8.07;;;6.15;;
52982;SDS011;48698;45.736;13.926;2023-06-26T00:55:14;9.70;;;6.72;;
52982;SDS011;48698;45.736;13.926;2023-06-26T01:00:16;7.10;;;6.10;;
52982;SDS011;48698;45.736;13.926;2023-06-26T01:05:20;12.50;;;6.65;;
52982;SDS011;48698;45.736;13.926;2023-06-26T01:10:25;7.70;;;6.88;;
52982;SDS011;48698;45.736;13.926;2023-06-26T01:15:31;9.13;;;6.75;;
52982;SDS011;48698;45.736;13.926;2023-06-26T01:20:35;7.75;;;6.95;;
52982;SDS011;48698;45.736;13.926;2023-06-26T01:26:26;8.68;;;6.75;;
52982;SDS011;48698;45.736;13.926;2023-06-26T01:31:13;9.48;;;6.65;;
52982;SDS011;48698;45.736;13.926;2023-06-26T01:36:17;10.20;;;6.70;;
52982;SDS011;48698;45.736;13.926;2023-06-26T01:41:20;6.93;;;6.22;;
52982;SDS011;48698;45.736;13.926;2023-06-26T01:46:23;7.82;;;6.70;;
52982;SDS011;48698;45.736;13.926;2023-06-26T01:51:30;7.82;;;6.93;;
52982;SDS011;48698;45.736;13.926;2023-06-26T01:56:35;8.20;;;7.00;;
52982;SDS011;48698;45.736;13.926;2023-06-26T02:01:41;10.48;;;7.00;;
52982;SDS011;48698;45.736;13.926;2023-06-26T02:06:44;7.47;;;6.53;;
52982;SDS011;48698;45.736;13.926;2023-06-26T02:11:46;9.02;;;6.30;;
52982;SDS011;48698;45.736;13.926;2023-06-26T02:16:50;8.20;;;6.20;;
52982;SDS011;48698;45.736;13.926;2023-06-26T02:21:53;8.70;;;6.40;;
52982;SDS011;48698;45.736;13.926;2023-06-26T02:26:56;7.75;;;6.97;;
52982;SDS011;48698;45.736;13.926;2023-06-26T02:31:59;8.93;;;6.95;;
52982;SDS011;48698;45.736;13.926;2023-06-26T02:37:03;11.00;;;6.95;;
52982;SDS011;48698;45.736;13.926;2023-06-26T02:42:05;7.85;;;6.40;;
52982;SDS011;48698;45.736;13.926;2023-06-26T02:47:08;8.00;;;6.95;;
52982;SDS011;48698;45.736;13.926;2023-06-26T02:52:11;7.23;;;6.50;;
52982;SDS011;48698;45.736;13.926;2023-06-26T02:57:14;8.82;;;6.78;;
52982;SDS011;48698;45.736;13.926;2023-06-26T03:02:17;9.00;;;7.05;;
52982;SDS011;48698;45.736;13.926;2023-06-26T03:07:19;9.20;;;6.80;;
52982;SDS011;48698;45.736;13.926;2023-06-26T03:12:22;10.43;;;7.22;;
52982;SDS011;48698;45.736;13.926;2023-06-26T03:17:25;9.27;;;6.60;;
52982;SDS011;48698;45.736;13.926;2023-06-26T03:22:28;8.00;;;6.60;;
52982;SDS011;48698;45.736;13.926;2023-06-26T03:27:30;8.45;;;6.53;;
52982;SDS011;48698;45.736;13.926;2023-06-26T03:32:33;9.45;;;7.15;;
52982;SDS011;48698;45.736;13.926;2023-06-26T03:37:36;7.25;;;6.55;;
52982;SDS011;48698;45.736;13.926;2023-06-26T03:42:38;12.85;;;7.35;;
52982;SDS011;48698;45.736;13.926;2023-06-26T03:47:41;9.13;;;7.05;;
52982;SDS011;48698;45.736;13.926;2023-06-26T03:52:44;8.98;;;7.32;;
52982;SDS011;48698;45.736;13.926;2023-06-26T03:57:46;9.00;;;7.70;;
52982;SDS011;48698;45.736;13.926;2023-06-26T04:02:49;7.70;;;6.90;;
52982;SDS011;48698;45.736;13.926;2023-06-26T04:07:53;8.38;;;7.38;;
52982;SDS011;48698;45.736;13.926;2023-06-26T04:12:56;9.45;;;7.78;;
52982;SDS011;48698;45.736;13.926;2023-06-26T04:17:59;8.45;;;7.55;;
52982;SDS011;48698;45.736;13.926;2023-06-26T04:23:02;10.75;;;7.65;;
52982;SDS011;48698;45.736;13.926;2023-06-26T04:28:05;8.40;;;7.50;;
52982;SDS011;48698;45.736;13.926;2023-06-26T04:33:08;8.70;;;7.63;;
52982;SDS011;48698;45.736;13.926;2023-06-26T04:38:14;11.63;;;7.90;;
52982;SDS011;48698;45.736;13.926;2023-06-26T04:43:17;10.63;;;7.97;;
52982;SDS011;48698;45.736;13.926;2023-06-26T04:48:20;8.90;;;7.30;;
52982;SDS011;48698;45.736;13.926;2023-06-26T04:53:23;10.23;;;7.20;;
52982;SDS011;48698;45.736;13.926;2023-06-26T04:58:26;9.75;;;7.72;;
52982;SDS011;48698;45.736;13.926;2023-06-26T05:03:29;13.45;;;8.10;;
52982;SDS011;48698;45.736;13.926;2023-06-26T05:08:32;11.75;;;7.75;;
52982;SDS011;48698;45.736;13.926;2023-06-26T05:13:35;9.73;;;7.03;;
52982;SDS011;48698;45.736;13.926;2023-06-26T05:18:38;10.25;;;7.53;;
52982;SDS011;48698;45.736;13.926;2023-06-26T05:23:40;12.38;;;6.90;;
52982;SDS011;48698;45.736;13.926;2023-06-26T05:28:47;12.15;;;6.72;;
52982;SDS011;48698;45.736;13.926;2023-06-26T05:33:50;11.10;;;6.65;;
52982;SDS011;48698;45.736;13.926;2023-06-26T05:38:57;15.23;;;7.43;;
52982;SDS011;48698;45.736;13.926;2023-06-26T05:44:01;12.40;;;7.60;;
52982;SDS011;48698;45.736;13.926;2023-06-26T05:49:03;13.20;;;6.75;;
52982;SDS011;48698;45.736;13.926;2023-06-26T05:54:06;10.15;;;7.22;;
52982;SDS011;48698;45.736;13.926;2023-06-26T05:59:09;13.05;;;7.80;;
52982;SDS011;48698;45.736;13.926;2023-06-26T06:04:14;10.18;;;6.72;;
52982;SDS011;48698;45.736;13.926;2023-06-26T06:09:17;8.38;;;7.38;;
52982;SDS011;48698;45.736;13.926;2023-06-26T06:14:20;9.80;;;6.60;;
52982;SDS011;48698;45.736;13.926;2023-06-26T06:19:23;11.00;;;6.80;;
52982;SDS011;48698;45.736;13.926;2023-06-26T06:24:26;9.20;;;6.60;;
52982;SDS011;48698;45.736;13.926;2023-06-26T06:29:29;9.25;;;6.82;;
52982;SDS011;48698;45.736;13.926;2023-06-26T06:34:32;12.95;;;6.32;;
52982;SDS011;48698;45.736;13.926;2023-06-26T06:39:35;9.80;;;6.17;;
52982;SDS011;48698;45.736;13.926;2023-06-26T06:44:38;8.83;;;6.23;;
52982;SDS011;48698;45.736;13.926;2023-06-26T06:49:40;10.20;;;6.22;;
52982;SDS011;48698;45.736;13.926;2023-06-26T06:54:52;7.72;;;5.90;;
52982;SDS011;48698;45.736;13.926;2023-06-26T06:59:57;10.18;;;6.72;;
52982;SDS011;48698;45.736;13.926;2023-06-26T07:04:59;12.07;;;6.28;;
52982;SDS011;48698;45.736;13.926;2023-06-26T07:10:07;7.40;;;5.32;;
52982;SDS011;48698;45.736;13.926;2023-06-26T07:15:11;11.30;;;6.15;;
52982;SDS011;48698;45.736;13.926;2023-06-26T07:20:14;7.28;;;5.40;;
52982;SDS011;48698;45.736;13.926;2023-06-26T07:25:21;8.30;;;5.60;;
52982;SDS011;48698;45.736;13.926;2023-06-26T07:30:25;9.32;;;5.65;;
52982;SDS011;48698;45.736;13.926;2023-06-26T07:35:28;6.65;;;5.45;;
52982;SDS011;48698;45.736;13.926;2023-06-26T07:40:31;6.82;;;6.03;;
52982;SDS011;48698;45.736;13.926;2023-06-26T07:45:34;7.38;;;5.80;;
52982;SDS011;48698;45.736;13.926;2023-06-26T07:50:36;9.85;;;5.38;;
52982;SDS011;48698;45.736;13.926;2023-06-26T07:55:39;7.50;;;5.97;;
52982;SDS011;48698;45.736;13.926;2023-06-26T08:00:42;5.85;;;5.32;;
52982;SDS011;48698;45.736;13.926;2023-06-26T08:05:45;7.40;;;5.90;;
52982;SDS011;48698;45.736;13.926;2023-06-26T08:10:48;7.80;;;5.60;;
52982;SDS011;48698;45.736;13.926;2023-06-26T08:15:50;7.10;;;5.65;;
52982;SDS011;48698;45.736;13.926;2023-06-26T08:20:54;7.35;;;5.38;;
52982;SDS011;48698;45.736;13.926;2023-06-26T08:25:57;6.95;;;5.60;;
52982;SDS011;48698;45.736;13.926;2023-06-26T08:31:01;6.68;;;5.97;;
52982;SDS011;48698;45.736;13.926;2023-06-26T08:36:04;6.47;;;5.57;;
52982;SDS011;48698;45.736;13.926;2023-06-26T08:41:07;6.78;;;5.57;;
52982;SDS011;48698;45.736;13.926;2023-06-26T08:46:10;6.75;;;5.90;;
52982;SDS011;48698;45.736;13.926;2023-06-26T08:51:17;6.57;;;5.63;;
52982;SDS011;48698;45.736;13.926;2023-06-26T09:15:45;7.63;;;5.90;;
52982;SDS011;48698;45.736;13.926;2023-06-26T10:35:24;7.90;;;5.78;;
52982;SDS011;48698;45.736;13.926;2023-06-26T11:25:11;7.63;;;5.63;;
52982;SDS011;48698;45.736;13.926;2023-06-26T11:30:24;6.88;;;6.20;;
52982;SDS011;48698;45.736;13.926;2023-06-26T12:05:28;9.38;;;6.22;;
52982;SDS011;48698;45.736;13.926;2023-06-26T12:10:32;9.25;;;6.10;;
52982;SDS011;48698;45.736;13.926;2023-06-26T12:15:36;16.65;;;7.18;;
52982;SDS011;48698;45.736;13.926;2023-06-26T12:25:43;7.68;;;6.18;;
52982;SDS011;48698;45.736;13.926;2023-06-26T12:30:46;8.30;;;6.50;;
52982;SDS011;48698;45.736;13.926;2023-06-26T12:35:50;8.98;;;6.78;;
52982;SDS011;48698;45.736;13.926;2023-06-26T12:40:52;8.32;;;6.97;;
52982;SDS011;48698;45.736;13.926;2023-06-26T12:45:59;8.20;;;5.95;;
52982;SDS011;48698;45.736;13.926;2023-06-26T12:51:08;7.28;;;6.57;;
52982;SDS011;48698;45.736;13.926;2023-06-26T12:56:14;6.72;;;6.13;;
52982;SDS011;48698;45.736;13.926;2023-06-26T13:01:18;9.15;;;6.60;;
52982;SDS011;48698;45.736;13.926;2023-06-26T13:06:22;11.05;;;6.97;;
52982;SDS011;48698;45.736;13.926;2023-06-26T13:11:24;8.55;;;6.85;;
52982;SDS011;48698;45.736;13.926;2023-06-26T13:16:27;6.97;;;6.28;;
52982;SDS011;48698;45.736;13.926;2023-06-26T13:21:32;7.88;;;5.88;;
52982;SDS011;48698;45.736;13.926;2023-06-26T13:26:35;8.10;;;5.95;;
52982;SDS011;48698;45.736;13.926;2023-06-26T13:31:39;10.65;;;6.35;;
52982;SDS011;48698;45.736;13.926;2023-06-26T13:36:42;6.53;;;5.82;;
52982;SDS011;48698;45.736;13.926;2023-06-26T13:41:45;8.02;;;5.85;;
52982;SDS011;48698;45.736;13.926;2023-06-26T13:46:48;10.00;;;5.93;;
52982;SDS011;48698;45.736;13.926;2023-06-26T13:51:51;9.27;;;5.72;;
52982;SDS011;48698;45.736;13.926;2023-06-26T14:02:00;7.07;;;6.10;;
52982;SDS011;48698;45.736;13.926;2023-06-26T14:07:03;6.80;;;5.60;;
52982;SDS011;48698;45.736;13.926;2023-06-26T14:12:07;8.77;;;6.30;;
52982;SDS011;48698;45.736;13.926;2023-06-26T14:17:10;6.93;;;6.20;;
52982;SDS011;48698;45.736;13.926;2023-06-26T14:22:18;7.43;;;5.80;;
52982;SDS011;48698;45.736;13.926;2023-06-26T14:27:21;9.70;;;5.97;;
52982;SDS011;48698;45.736;13.926;2023-06-26T14:32:23;11.27;;;6.45;;
52982;SDS011;48698;45.736;13.926;2023-06-26T14:37:26;14.05;;;6.25;;
52982;SDS011;48698;45.736;13.926;2023-06-26T14:42:31;7.68;;;5.70;;
52982;SDS011;48698;45.736;13.926;2023-06-26T14:47:34;7.95;;;6.18;;
52982;SDS011;48698;45.736;13.926;2023-06-26T14:52:37;7.55;;;6.10;;
52982;SDS011;48698;45.736;13.926;2023-06-26T14:57:40;9.80;;;6.25;;
52982;SDS011;48698;45.736;13.926;2023-06-26T15:02:42;8.05;;;6.55;;
52982;SDS011;48698;45.736;13.926;2023-06-26T15:12:48;9.00;;;6.70;;
52982;SDS011;48698;45.736;13.926;2023-06-26T15:17:51;8.55;;;6.32;;
52982;SDS011;48698;45.736;13.926;2023-06-26T15:22:53;9.10;;;6.40;;
52982;SDS011;48698;45.736;13.926;2023-06-26T15:27:56;9.98;;;6.53;;
52982;SDS011;48698;45.736;13.926;2023-06-26T15:32:59;10.15;;;6.47;;
52982;SDS011;48698;45.736;13.926;2023-06-26T15:43:04;7.17;;;6.23;;
52982;SDS011;48698;45.736;13.926;2023-06-26T15:48:07;6.60;;;6.00;;
52982;SDS011;48698;45.736;13.926;2023-06-26T15:53:09;8.95;;;6.28;;
52982;SDS011;48698;45.736;13.926;2023-06-26T15:58:18;7.97;;;5.45;;
52982;SDS011;48698;45.736;13.926;2023-06-26T16:03:21;8.20;;;6.10;;
52982;SDS011;48698;45.736;13.926;2023-06-26T16:08:23;8.52;;;6.20;;
52982;SDS011;48698;45.736;13.926;2023-06-26T16:13:27;6.50;;;5.75;;
52982;SDS011;48698;45.736;13.926;2023-06-26T16:18:29;7.70;;;6.20;;
52982;SDS011;48698;45.736;13.926;2023-06-26T16:23:33;7.95;;;6.30;;
52982;SDS011;48698;45.736;13.926;2023-06-26T16:33:39;6.93;;;6.03;;
52982;SDS011;48698;45.736;13.926;2023-06-26T16:38:41;9.50;;;6.22;;
52982;SDS011;48698;45.736;13.926;2023-06-26T16:43:44;7.30;;;5.97;;
52982;SDS011;48698;45.736;13.926;2023-06-26T16:48:47;7.65;;;6.13;;
52982;SDS011;48698;45.736;13.926;2023-06-26T16:53:50;6.60;;;6.00;;
52982;SDS011;48698;45.736;13.926;2023-06-26T16:58:52;8.50;;;6.13;;
52982;SDS011;48698;45.736;13.926;2023-06-26T17:03:55;10.95;;;6.55;;
52982;SDS011;48698;45.736;13.926;2023-06-26T17:08:58;7.68;;;6.32;;
52982;SDS011;48698;45.736;13.926;2023-06-26T17:14:00;9.18;;;6.38;;
52982;SDS011;48698;45.736;13.926;2023-06-26T17:19:04;10.40;;;6.45;;
52982;SDS011;48698;45.736;13.926;2023-06-26T17:24:08;8.70;;;6.10;;
52982;SDS011;48698;45.736;13.926;2023-06-26T17:29:10;10.25;;;6.63;;
52982;SDS011;48698;45.736;13.926;2023-06-26T17:34:13;10.95;;;6.60;;
52982;SDS011;48698;45.736;13.926;2023-06-26T17:39:16;6.82;;;5.60;;
52982;SDS011;48698;45.736;13.926;2023-06-26T17:44:18;7.55;;;6.20;;
52982;SDS011;48698;45.736;13.926;2023-06-26T17:54:24;6.53;;;5.70;;
52982;SDS011;48698;45.736;13.926;2023-06-26T17:59:28;8.57;;;6.28;;
52982;SDS011;48698;45.736;13.926;2023-06-26T18:18:50;14.77;;;7.68;;
52982;SDS011;48698;45.736;13.926;2023-06-26T18:23:57;11.85;;;6.53;;
52982;SDS011;48698;45.736;13.926;2023-06-26T18:29:01;7.50;;;5.80;;
52982;SDS011;48698;45.736;13.926;2023-06-26T18:34:03;7.20;;;6.18;;
52982;SDS011;48698;45.736;13.926;2023-06-26T18:39:06;7.05;;;6.15;;
52982;SDS011;48698;45.736;13.926;2023-06-26T18:49:12;7.10;;;6.37;;
52982;SDS011;48698;45.736;13.926;2023-06-26T18:59:00;8.82;;;6.78;;
52982;SDS011;48698;45.736;13.926;2023-06-26T19:04:04;7.95;;;7.15;;
52982;SDS011;48698;45.736;13.926;2023-06-26T19:09:06;13.70;;;7.07;;
52982;SDS011;48698;45.736;13.926;2023-06-26T19:14:09;11.65;;;6.75;;
52982;SDS011;48698;45.736;13.926;2023-06-26T19:19:12;12.73;;;7.80;;
52982;SDS011;48698;45.736;13.926;2023-06-26T19:24:15;20.70;;;8.30;;
52982;SDS011;48698;45.736;13.926;2023-06-26T19:29:19;11.75;;;7.10;;
52982;SDS011;48698;45.736;13.926;2023-06-26T19:34:23;9.80;;;7.50;;
52982;SDS011;48698;45.736;13.926;2023-06-26T19:39:26;9.43;;;7.67;;
52982;SDS011;48698;45.736;13.926;2023-06-26T19:44:29;11.80;;;7.63;;
52982;SDS011;48698;45.736;13.926;2023-06-26T19:49:32;8.80;;;7.35;;
52982;SDS011;48698;45.736;13.926;2023-06-26T19:54:34;8.68;;;7.25;;
52982;SDS011;48698;45.736;13.926;2023-06-26T19:59:37;8.52;;;7.63;;
52982;SDS011;48698;45.736;13.926;2023-06-26T20:04:40;8.07;;;7.27;;
52982;SDS011;48698;45.736;13.926;2023-06-26T20:09:45;11.52;;;8.07;;
52982;SDS011;48698;45.736;13.926;2023-06-26T20:14:47;9.15;;;7.75;;
52982;SDS011;48698;45.736;13.926;2023-06-26T20:19:50;10.25;;;8.38;;
52982;SDS011;48698;45.736;13.926;2023-06-26T20:24:53;9.52;;;8.57;;
52982;SDS011;48698;45.736;13.926;2023-06-26T20:29:56;10.00;;;8.23;;
52982;SDS011;48698;45.736;13.926;2023-06-26T20:34:59;9.07;;;8.07;;
52982;SDS011;48698;45.736;13.926;2023-06-26T20:40:02;10.38;;;8.55;;
52982;SDS011;48698;45.736;13.926;2023-06-26T20:45:06;9.50;;;8.50;;
52982;SDS011;48698;45.736;13.926;2023-06-26T20:50:11;9.45;;;8.18;;
52982;SDS011;48698;45.736;13.926;2023-06-26T20:55:17;9.75;;;8.63;;
52982;SDS011;48698;45.736;13.926;2023-06-26T21:00:21;12.13;;;8.60;;
52982;SDS011;48698;45.736;13.926;2023-06-26T21:05:25;12.05;;;8.60;;
52982;SDS011;48698;45.736;13.926;2023-06-26T21:10:27;10.73;;;8.18;;
52982;SDS011;48698;45.736;13.926;2023-06-26T21:15:30;12.90;;;8.70;;
52982;SDS011;48698;45.736;13.926;2023-06-26T21:20:33;8.95;;;8.00;;
52982;SDS011;48698;45.736;13.926;2023-06-26T21:25:36;9.18;;;8.10;;
52982;SDS011;48698;45.736;13.926;2023-06-26T21:30:39;10.23;;;8.30;;
52982;SDS011;48698;45.736;13.926;2023-06-26T21:35:42;9.70;;;8.70;;
52982;SDS011;48698;45.736;13.926;2023-06-26T21:40:45;10.90;;;8.30;;
52982;SDS011;48698;45.736;13.926;2023-06-26T21:45:48;10.10;;;9.10;;
52982;SDS011;48698;45.736;13.926;2023-06-26T21:50:51;10.40;;;9.30;;
52982;SDS011;48698;45.736;13.926;2023-06-26T21:55:54;9.40;;;8.50;;
52982;SDS011;48698;45.736;13.926;2023-06-26T22:00:57;9.32;;;8.40;;
52982;SDS011;48698;45.736;13.926;2023-06-26T22:06:00;13.35;;;10.15;;
52982;SDS011;48698;45.736;13.926;2023-06-26T22:11:03;10.75;;;9.60;;
52982;SDS011;48698;45.736;13.926;2023-06-26T22:16:05;11.98;;;10.77;;
52982;SDS011;48698;45.736;13.926;2023-06-26T22:21:08;11.85;;;10.15;;
52982;SDS011;48698;45.736;13.926;2023-06-26T22:26:12;11.13;;;10.02;;
52982;SDS011;48698;45.736;13.926;2023-06-26T22:31:15;11.00;;;9.93;;
52982;SDS011;48698;45.736;13.926;2023-06-26T22:36:18;10.77;;;9.68;;
52982;SDS011;48698;45.736;13.926;2023-06-26T22:41:21;11.32;;;9.95;;
52982;SDS011;48698;45.736;13.926;2023-06-26T22:46:24;11.25;;;10.20;;
52982;SDS011;48698;45.736;13.926;2023-06-26T22:51:26;12.00;;;10.45;;
52982;SDS011;48698;45.736;13.926;2023-06-26T22:56:29;12.48;;;10.93;;
52982;SDS011;48698;45.736;13.926;2023-06-26T23:01:46;12.02;;;10.82;;
52982;SDS011;48698;45.736;13.926;2023-06-26T23:06:49;12.05;;;10.95;;
52982;SDS011;48698;45.736;13.926;2023-06-26T23:11:59;14.93;;;10.85;;
52982;SDS011;48698;45.736;13.926;2023-06-26T23:17:01;11.48;;;10.15;;
52982;SDS011;48698;45.736;13.926;2023-06-26T23:22:06;13.18;;;11.88;;
52982;SDS011;48698;45.736;13.926;2023-06-26T23:27:11;13.98;;;12.52;;
52982;SDS011;48698;45.736;13.926;2023-06-26T23:32:14;12.75;;;11.48;;
52982;SDS011;48698;45.736;13.926;2023-06-26T23:37:19;12.88;;;11.50;;
52982;SDS011;48698;45.736;13.926;2023-06-26T23:42:27;12.50;;;10.98;;
52982;SDS011;48698;45.736;13.926;2023-06-26T23:47:30;13.32;;;10.88;;
52982;SDS011;48698;45.736;13.926;2023-06-26T23:52:33;12.65;;;11.32;;
52982;SDS011;48698;45.736;13.926;2023-06-26T23:57:36;12.15;;;10.82;;
